Time,TemperatureF,DewpointF,PressureIn,WindDirection,WindDirectionDegrees,WindSpeedMPH,WindSpeedGustMPH,Humidity,HourlyPrecipIn,Conditions,Clouds,dailyrainin,SoftwareType,DateUTC
2013-08-25 00:03:00,76.5,67.2,29.76,South,169,10.0,10.4,73,0.00,CLR,SKC,0.00,WeatherDisplay:10.37,2013-08-25 05:03:00,
2013-08-25 00:08:00,76.3,67.4,29.76,South,180,7.7,13.0,74,0.00,CLR,SKC,0.00,WeatherDisplay:10.37,2013-08-25 05:08:00,
2013-08-25 00:13:00,76.2,66.9,29.76,South,175,7.5,11.5,73,0.00,CLR,SKC,0.00,WeatherDisplay:10.37,2013-08-25 05:13:00,
2013-08-25 00:18:00,76.0,66.7,29.76,South,171,6.7,11.5,73,0.00,CLR,SKC,0.00,WeatherDisplay:10.37,2013-08-25 05:18:00,
2013-08-25 00:23:00,76.0,66.7,29.76,South,180,11.1,14.0,73,0.00,CLR,SKC,0.00,WeatherDisplay:10.37,2013-08-25 05:23:00,
2013-08-25 00:28:00,76.0,66.7,29.76,SSE,168,6.7,12.0,73,0.00,CLR,SKC,0.00,WeatherDisplay:10.37,2013-08-25 05:28:00,
2013-08-25 00:33:00,76.0,66.7,29.76,South,173,8.1,11.5,73,0.00,CLR,SKC,0.00,WeatherDisplay:10.37,2013-08-25 05:33:00,
2013-08-25 00:38:00,75.9,66.6,29.76,South,175,10.0,13.0,73,0.00,CLR,SKC,0.00,WeatherDisplay:10.37,2013-08-25 05:38:00,
2013-08-25 00:43:00,75.9,67.0,29.76,South,177,6.8,14.0,74,0.00,CLR,SKC,0.00,WeatherDisplay:10.37,2013-08-25 05:43:00,
2013-08-25 00:48:00,76.0,67.1,29.76,South,186,7.3,11.5,74,0.00,CLR,SKC,0.00,WeatherDisplay:10.37,2013-08-25 05:48:00,
2013-08-25 00:53:00,76.1,67.2,29.76,South,182,7.0,15.0,74,0.00,CLR,SKC,0.00,WeatherDisplay:10.37,2013-08-25 05:53:00,
2013-08-25 00:58:00,76.1,67.2,29.77,South,173,9.0,13.0,74,0.00,CLR,SKC,0.00,WeatherDisplay:10.37,2013-08-25 05:58:00,
2013-08-25 01:03:00,76.0,67.1,29.77,SSW,212,8.0,13.8,74,0.00,CLR,SKC,0.00,WeatherDisplay:10.37,2013-08-25 06:03:00,
2013-08-25 01:08:00,76.0,67.1,29.77,South,179,7.2,10.4,74,0.00,CLR,SKC,0.00,WeatherDisplay:10.37,2013-08-25 06:08:00,
2013-08-25 01:13:00,75.8,66.9,29.77,South,186,10.5,14.0,74,0.00,CLR,SKC,0.00,WeatherDisplay:10.37,2013-08-25 06:13:00,
2013-08-25 01:18:00,75.8,66.9,29.77,SSW,198,7.3,11.5,74,0.00,CLR,SKC,0.00,WeatherDisplay:10.37,2013-08-25 06:18:00,
2013-08-25 01:23:00,75.7,66.8,29.77,SSW,204,6.6,10.4,74,0.00,CLR,SKC,0.00,WeatherDisplay:10.37,2013-08-25 06:23:00,
2013-08-25 01:28:00,75.5,66.6,29.78,South,187,6.2,10.4,74,0.00,CLR,SKC,0.00,WeatherDisplay:10.37,2013-08-25 06:28:00,
2013-08-25 01:33:00,75.3,66.4,29.77,South,186,7.1,10.0,74,0.00,CLR,SKC,0.00,WeatherDisplay:10.37,2013-08-25 06:33:00,
2013-08-25 01:38:00,75.2,66.3,29.77,South,180,5.8,10.4,74,0.00,CLR,SKC,0.00,WeatherDisplay:10.37,2013-08-25 06:38:00,
2013-08-25 01:43:00,75.1,66.2,29.77,SSW,209,7.8,11.5,74,0.00,CLR,SKC,0.00,WeatherDisplay:10.37,2013-08-25 06:43:00,
2013-08-25 01:48:00,75.0,66.1,29.77,South,188,7.2,10.4,74,0.00,CLR,SKC,0.00,WeatherDisplay:10.37,2013-08-25 06:48:00,
2013-08-25 01:53:00,74.9,66.1,29.77,South,180,7.0,11.5,74,0.00,CLR,SKC,0.00,WeatherDisplay:10.37,2013-08-25 06:53:00,
2013-08-25 01:58:00,74.8,66.0,29.77,South,191,4.7,8.1,74,0.00,CLR,SKC,0.00,WeatherDisplay:10.37,2013-08-25 06:58:00,
2013-08-25 02:03:00,74.7,65.9,29.77,South,181,7.3,11.5,74,0.00,CLR,SKC,0.00,WeatherDisplay:10.37,2013-08-25 07:03:00,
2013-08-25 02:08:00,74.7,65.9,29.77,South,182,7.0,11.5,74,0.00,CLR,SKC,0.00,WeatherDisplay:10.37,2013-08-25 07:08:00,
2013-08-25 02:13:00,74.6,65.8,29.77,SSW,207,7.0,12.0,74,0.00,CLR,SKC,0.00,WeatherDisplay:10.37,2013-08-25 07:13:00,
2013-08-25 02:18:00,74.7,65.9,29.77,South,186,6.8,9.2,74,0.00,CLR,SKC,0.00,WeatherDisplay:10.37,2013-08-25 07:18:00,
2013-08-25 02:23:00,74.7,65.9,29.77,South,173,6.5,11.0,74,0.00,CLR,SKC,0.00,WeatherDisplay:10.37,2013-08-25 07:23:00,
2013-08-25 02:28:00,74.7,65.9,29.77,South,191,6.0,11.5,74,0.00,CLR,SKC,0.00,WeatherDisplay:10.37,2013-08-25 07:28:00,
2013-08-25 02:33:00,74.7,65.9,29.77,South,190,7.2,12.0,74,0.00,CLR,SKC,0.00,WeatherDisplay:10.37,2013-08-25 07:33:00,
2013-08-25 02:38:00,74.8,66.0,29.77,SSW,192,7.0,11.5,74,0.00,CLR,SKC,0.00,WeatherDisplay:10.37,2013-08-25 07:38:00,
2013-08-25 02:43:00,74.9,66.1,29.77,South,177,7.8,11.5,74,0.00,CLR,SKC,0.00,WeatherDisplay:10.37,2013-08-25 07:43:00,
2013-08-25 02:48:00,75.0,66.1,29.77,South,175,6.1,10.4,74,0.00,CLR,SKC,0.00,WeatherDisplay:10.37,2013-08-25 07:48:00,
2013-08-25 02:53:00,75.0,66.1,29.77,SSW,197,7.4,11.5,74,0.00,CLR,SKC,0.00,WeatherDisplay:10.37,2013-08-25 07:53:00,
2013-08-25 02:58:00,75.1,66.2,29.78,South,190,7.3,12.0,74,0.00,CLR,SKC,0.00,WeatherDisplay:10.37,2013-08-25 07:58:00,
2013-08-25 03:03:00,75.1,66.2,29.78,South,184,6.4,10.4,74,0.00,CLR,SKC,0.00,WeatherDisplay:10.37,2013-08-25 08:03:00,
2013-08-25 03:08:00,75.1,66.2,29.78,South,185,6.8,11.5,74,0.00,CLR,SKC,0.00,WeatherDisplay:10.37,2013-08-25 08:08:00,
2013-08-25 03:13:00,75.1,66.2,29.78,SSW,199,7.1,12.0,74,0.00,CLR,SKC,0.00,WeatherDisplay:10.37,2013-08-25 08:13:00,
2013-08-25 03:18:00,75.1,66.2,29.78,SSW,208,5.3,11.5,74,0.00,CLR,SKC,0.00,WeatherDisplay:10.37,2013-08-25 08:18:00,
2013-08-25 03:23:00,75.0,66.1,29.78,South,180,6.8,10.4,74,0.00,CLR,SKC,0.00,WeatherDisplay:10.37,2013-08-25 08:23:00,
2013-08-25 03:28:00,75.0,66.1,29.78,SSW,208,6.1,10.4,74,0.00,CLR,SKC,0.00,WeatherDisplay:10.37,2013-08-25 08:28:00,
2013-08-25 03:33:00,75.1,66.2,29.77,South,174,5.9,11.5,74,0.00,CLR,SKC,0.00,WeatherDisplay:10.37,2013-08-25 08:33:00,
2013-08-25 03:38:00,75.0,66.1,29.77,South,180,6.2,11.5,74,0.00,CLR,SKC,0.00,WeatherDisplay:10.37,2013-08-25 08:38:00,
2013-08-25 03:43:00,74.9,66.1,29.78,SSW,194,5.5,9.2,74,0.00,CLR,SKC,0.00,WeatherDisplay:10.37,2013-08-25 08:43:00,
2013-08-25 03:48:00,74.8,66.0,29.78,South,190,5.5,11.5,74,0.00,CLR,SKC,0.00,WeatherDisplay:10.37,2013-08-25 08:48:00,
2013-08-25 03:53:00,74.7,65.9,29.78,SSW,196,6.0,12.0,74,0.00,CLR,SKC,0.00,WeatherDisplay:10.37,2013-08-25 08:53:00,
2013-08-25 03:58:00,74.7,65.9,29.77,South,189,6.9,10.4,74,0.00,CLR,SKC,0.00,WeatherDisplay:10.37,2013-08-25 08:58:00,
2013-08-25 04:03:00,74.6,65.8,29.77,South,190,5.9,11.5,74,0.00,CLR,SKC,0.00,WeatherDisplay:10.37,2013-08-25 09:03:00,
2013-08-25 04:08:00,74.5,65.7,29.78,South,184,5.7,11.5,74,0.00,CLR,SKC,0.00,WeatherDisplay:10.37,2013-08-25 09:08:00,
2013-08-25 04:13:00,74.5,65.7,29.78,South,184,7.4,11.5,74,0.00,CLR,SKC,0.00,WeatherDisplay:10.37,2013-08-25 09:13:00,
2013-08-25 04:18:00,74.4,65.6,29.78,South,184,5.2,11.5,74,0.00,CLR,SKC,0.00,WeatherDisplay:10.37,2013-08-25 09:18:00,
2013-08-25 04:23:00,74.4,65.6,29.77,South,190,5.3,10.4,74,0.00,CLR,SKC,0.00,WeatherDisplay:10.37,2013-08-25 09:23:00,
2013-08-25 04:28:00,74.3,65.5,29.77,South,189,5.8,11.5,74,0.00,CLR,SKC,0.00,WeatherDisplay:10.37,2013-08-25 09:28:00,
2013-08-25 04:33:00,74.3,65.5,29.78,South,182,7.0,11.5,74,0.00,CLR,SKC,0.00,WeatherDisplay:10.37,2013-08-25 09:33:00,
2013-08-25 04:38:00,74.2,65.4,29.77,South,188,8.7,10.0,74,0.00,CLR,SKC,0.00,WeatherDisplay:10.37,2013-08-25 09:38:00,
2013-08-25 04:43:00,74.2,65.4,29.78,SSW,193,8.6,15.0,74,0.00,CLR,SKC,0.00,WeatherDisplay:10.37,2013-08-25 09:43:00,
2013-08-25 04:48:00,74.1,65.3,29.78,South,189,5.9,10.4,74,0.00,CLR,SKC,0.00,WeatherDisplay:10.37,2013-08-25 09:48:00,
2013-08-25 04:53:00,74.1,65.3,29.78,South,180,5.6,11.5,74,0.00,CLR,SKC,0.00,WeatherDisplay:10.37,2013-08-25 09:53:00,
2013-08-25 04:58:00,74.0,65.2,29.78,SSW,211,6.6,10.4,74,0.00,CLR,SKC,0.00,WeatherDisplay:10.37,2013-08-25 09:58:00,
2013-08-25 05:03:00,74.0,65.2,29.78,South,188,9.8,16.1,74,0.00,CLR,SKC,0.00,WeatherDisplay:10.37,2013-08-25 10:03:00,
2013-08-25 05:08:00,74.1,65.3,29.78,SSW,209,4.0,8.1,74,0.00,CLR,SKC,0.00,WeatherDisplay:10.37,2013-08-25 10:08:00,
2013-08-25 05:13:00,74.0,65.2,29.78,SSW,207,7.9,12.0,74,0.00,CLR,SKC,0.00,WeatherDisplay:10.37,2013-08-25 10:13:00,
2013-08-25 05:18:00,74.0,65.2,29.78,South,185,6.4,12.7,74,0.00,CLR,SKC,0.00,WeatherDisplay:10.37,2013-08-25 10:18:00,
2013-08-25 05:23:00,73.9,65.1,29.78,South,188,6.7,12.0,74,0.00,CLR,SKC,0.00,WeatherDisplay:10.37,2013-08-25 10:23:00,
2013-08-25 05:28:00,73.8,65.0,29.78,South,175,7.3,9.2,74,0.00,CLR,SKC,0.00,WeatherDisplay:10.37,2013-08-25 10:28:00,
2013-08-25 05:33:00,73.7,64.9,29.78,South,190,8.2,11.5,74,0.00,CLR,SKC,0.00,WeatherDisplay:10.37,2013-08-25 10:33:00,
2013-08-25 05:38:00,73.7,64.9,29.78,South,186,4.9,9.2,74,0.00,CLR,SKC,0.00,WeatherDisplay:10.37,2013-08-25 10:38:00,
2013-08-25 05:43:00,73.7,64.9,29.78,SSW,192,6.2,10.4,74,0.00,CLR,SKC,0.00,WeatherDisplay:10.37,2013-08-25 10:43:00,
2013-08-25 05:48:00,73.7,64.9,29.79,South,185,5.3,11.5,74,0.00,CLR,SKC,0.00,WeatherDisplay:10.37,2013-08-25 10:48:00,
2013-08-25 05:53:00,73.7,64.9,29.79,South,188,7.9,11.5,74,0.00,CLR,SKC,0.00,WeatherDisplay:10.37,2013-08-25 10:53:00,
2013-08-25 05:58:00,73.7,64.9,29.79,South,183,5.6,10.4,74,0.00,CLR,SKC,0.00,WeatherDisplay:10.37,2013-08-25 10:58:00,
2013-08-25 06:03:00,73.7,64.9,29.79,South,182,6.5,10.4,74,0.00,CLR,SKC,0.00,WeatherDisplay:10.37,2013-08-25 11:03:00,
2013-08-25 06:08:00,73.7,64.9,29.79,South,188,5.6,11.5,74,0.00,CLR,SKC,0.00,WeatherDisplay:10.37,2013-08-25 11:08:00,
2013-08-25 06:13:00,73.7,64.9,29.79,South,184,6.6,11.5,74,0.00,CLR,SKC,0.00,WeatherDisplay:10.37,2013-08-25 11:13:00,
2013-08-25 06:18:00,73.6,64.8,29.79,South,187,6.3,9.2,74,0.00,CLR,SKC,0.00,WeatherDisplay:10.37,2013-08-25 11:18:00,
2013-08-25 06:23:00,73.6,64.8,29.79,SSW,194,7.0,12.0,74,0.00,CLR,SKC,0.00,WeatherDisplay:10.37,2013-08-25 11:23:00,
2013-08-25 06:28:00,73.6,64.8,29.80,South,178,7.5,11.5,74,0.00,CLR,SKC,0.00,WeatherDisplay:10.37,2013-08-25 11:28:00,
2013-08-25 06:33:00,73.6,64.8,29.80,SW,217,5.7,11.5,74,0.00,CLR,SKC,0.00,WeatherDisplay:10.37,2013-08-25 11:33:00,
2013-08-25 06:38:00,73.6,64.8,29.80,South,188,5.2,9.2,74,0.00,CLR,SKC,0.00,WeatherDisplay:10.37,2013-08-25 11:38:00,
2013-08-25 06:43:00,73.7,64.9,29.80,South,182,4.7,11.5,74,0.00,CLR,SKC,0.00,WeatherDisplay:10.37,2013-08-25 11:43:00,
2013-08-25 06:48:00,73.7,64.9,29.80,South,189,4.4,9.2,74,0.00,CLR,SKC,0.00,WeatherDisplay:10.37,2013-08-25 11:48:00,
2013-08-25 06:53:00,73.7,64.9,29.80,SSW,202,7.7,12.0,74,0.00,CLR,SKC,0.00,WeatherDisplay:10.37,2013-08-25 11:53:00,
2013-08-25 06:58:00,73.7,64.9,29.80,SSW,196,3.8,9.2,74,0.00,CLR,SKC,0.00,WeatherDisplay:10.37,2013-08-25 11:58:00,
2013-08-25 07:03:00,73.8,64.6,29.80,South,186,4.6,11.5,73,0.00,CLR,SKC,0.00,WeatherDisplay:10.37,2013-08-25 12:03:00,
2013-08-25 07:08:00,73.8,64.6,29.80,South,189,4.6,8.1,73,0.00,CLR,SKC,0.00,WeatherDisplay:10.37,2013-08-25 12:08:00,
2013-08-25 07:13:00,73.9,64.7,29.80,SSW,192,4.9,11.5,73,0.00,CLR,SKC,0.00,WeatherDisplay:10.37,2013-08-25 12:13:00,
2013-08-25 07:18:00,74.0,64.8,29.80,SSW,195,4.7,8.1,73,0.00,CLR,SKC,0.00,WeatherDisplay:10.37,2013-08-25 12:18:00,
2013-08-25 07:23:00,74.2,65.4,29.80,WSW,254,5.9,9.2,74,0.00,CLR,SKC,0.00,WeatherDisplay:10.37,2013-08-25 12:23:00,
2013-08-25 07:28:00,74.4,65.6,29.80,South,187,7.5,11.5,74,0.00,CLR,SKC,0.00,WeatherDisplay:10.37,2013-08-25 12:28:00,
2013-08-25 07:33:00,74.6,65.8,29.80,SSW,200,5.5,10.4,74,0.00,CLR,SKC,0.00,WeatherDisplay:10.37,2013-08-25 12:33:00,
2013-08-25 07:38:00,74.9,66.1,29.81,SSW,200,4.3,11.5,74,0.00,CLR,SKC,0.00,WeatherDisplay:10.37,2013-08-25 12:38:00,
2013-08-25 07:43:00,75.1,66.2,29.80,SSW,198,3.8,11.5,74,0.00,CLR,SKC,0.00,WeatherDisplay:10.37,2013-08-25 12:43:00,
2013-08-25 07:48:00,75.3,66.4,29.81,South,190,3.8,10.4,74,0.00,CLR,SKC,0.00,WeatherDisplay:10.37,2013-08-25 12:48:00,
2013-08-25 07:53:00,75.6,66.7,29.80,SSW,205,6.2,9.2,74,0.00,CLR,SKC,0.00,WeatherDisplay:10.37,2013-08-25 12:53:00,
2013-08-25 07:58:00,76.0,67.1,29.80,South,191,4.4,6.9,74,0.00,CLR,SKC,0.00,WeatherDisplay:10.37,2013-08-25 12:58:00,
2013-08-25 08:03:00,76.6,68.1,29.81,SW,233,6.1,10.4,75,0.00,CLR,SKC,0.00,WeatherDisplay:10.37,2013-08-25 13:03:00,
2013-08-25 08:08:00,77.1,68.6,29.80,South,175,4.3,10.4,75,0.00,CLR,SKC,0.00,WeatherDisplay:10.37,2013-08-25 13:08:00,
2013-08-25 08:13:00,77.5,68.9,29.80,South,191,7.1,16.1,75,0.00,CLR,SKC,0.00,WeatherDisplay:10.37,2013-08-25 13:13:00,
2013-08-25 08:18:00,77.8,69.2,29.80,SW,222,10.1,17.3,75,0.00,CLR,SKC,0.00,WeatherDisplay:10.37,2013-08-25 13:18:00,
2013-08-25 08:23:00,78.1,69.5,29.80,SSW,202,7.2,11.5,75,0.00,CLR,SKC,0.00,WeatherDisplay:10.37,2013-08-25 13:23:00,
2013-08-25 08:28:00,78.3,69.7,29.80,South,188,5.3,9.2,75,0.00,CLR,SKC,0.00,WeatherDisplay:10.37,2013-08-25 13:28:00,
2013-08-25 08:33:00,78.6,70.0,29.80,South,175,6.0,13.8,75,0.00,CLR,SKC,0.00,WeatherDisplay:10.37,2013-08-25 13:33:00,
2013-08-25 08:38:00,79.0,70.4,29.80,SSW,206,3.3,10.4,75,0.00,CLR,SKC,0.00,WeatherDisplay:10.37,2013-08-25 13:38:00,
2013-08-25 08:43:00,79.4,70.4,29.80,SW,228,4.6,12.0,74,0.00,CLR,SKC,0.00,WeatherDisplay:10.37,2013-08-25 13:43:00,
2013-08-25 08:48:00,79.8,70.8,29.80,SSW,212,3.6,9.2,74,0.00,CLR,SKC,0.00,WeatherDisplay:10.37,2013-08-25 13:48:00,
2013-08-25 08:53:00,80.1,71.1,29.80,SW,231,6.4,15.0,74,0.00,CLR,SKC,0.00,WeatherDisplay:10.37,2013-08-25 13:53:00,
2013-08-25 08:58:00,80.4,71.3,29.80,WSW,254,3.1,8.1,74,0.00,CLR,SKC,0.00,WeatherDisplay:10.37,2013-08-25 13:58:00,
2013-08-25 09:03:00,80.9,71.4,29.80,SSW,205,5.4,11.5,73,0.00,CLR,SKC,0.00,WeatherDisplay:10.37,2013-08-25 14:03:00,
2013-08-25 09:08:00,81.2,71.3,29.80,SW,228,7.1,16.1,72,0.00,CLR,SKC,0.00,WeatherDisplay:10.37,2013-08-25 14:08:00,
2013-08-25 09:13:00,81.4,71.5,29.80,SW,222,5.9,10.4,72,0.00,CLR,SKC,0.00,WeatherDisplay:10.37,2013-08-25 14:13:00,
2013-08-25 09:18:00,81.6,71.7,29.79,SSW,197,5.8,9.2,72,0.00,CLR,SKC,0.00,WeatherDisplay:10.37,2013-08-25 14:18:00,
2013-08-25 09:23:00,81.6,72.1,29.79,SSW,213,5.8,10.4,73,0.00,CLR,SKC,0.00,WeatherDisplay:10.37,2013-08-25 14:23:00,
2013-08-25 09:28:00,81.9,72.0,29.79,WSW,255,7.0,15.0,72,0.00,CLR,SKC,0.00,WeatherDisplay:10.37,2013-08-25 14:28:00,
2013-08-25 09:33:00,82.1,71.8,29.79,SW,214,4.5,9.2,71,0.00,CLR,SKC,0.00,WeatherDisplay:10.37,2013-08-25 14:33:00,
2013-08-25 09:38:00,82.4,72.5,29.79,South,191,5.3,11.5,72,0.00,CLR,SKC,0.00,WeatherDisplay:10.37,2013-08-25 14:38:00,
2013-08-25 09:43:00,82.6,72.2,29.79,SSW,196,4.0,11.5,71,0.00,CLR,SKC,0.00,WeatherDisplay:10.37,2013-08-25 14:43:00,
2013-08-25 09:48:00,82.7,72.3,29.79,SSW,209,4.8,11.5,71,0.00,CLR,SKC,0.00,WeatherDisplay:10.37,2013-08-25 14:48:00,
2013-08-25 09:53:00,82.9,72.5,29.79,SSE,153,6.6,15.0,71,0.00,CLR,SKC,0.00,WeatherDisplay:10.37,2013-08-25 14:53:00,
2013-08-25 09:58:00,83.1,72.7,29.79,SW,217,5.7,11.5,71,0.00,CLR,SKC,0.00,WeatherDisplay:10.37,2013-08-25 14:58:00,
2013-08-25 10:03:00,83.2,72.4,29.79,SSW,213,5.3,13.8,70,0.00,CLR,SKC,0.00,WeatherDisplay:10.37,2013-08-25 15:03:00,
2013-08-25 10:08:00,83.6,73.6,29.79,South,180,6.2,11.5,72,0.00,CLR,SKC,0.00,WeatherDisplay:10.37,2013-08-25 15:08:00,
2013-08-25 10:13:00,83.8,73.0,29.79,South,191,6.8,15.0,70,0.00,CLR,SKC,0.00,WeatherDisplay:10.37,2013-08-25 15:13:00,
2013-08-25 10:18:00,83.8,73.0,29.78,South,189,6.2,11.5,70,0.00,CLR,SKC,0.00,WeatherDisplay:10.37,2013-08-25 15:18:00,
2013-08-25 10:23:00,84.0,73.2,29.78,South,169,5.4,11.5,70,0.00,CLR,SKC,0.00,WeatherDisplay:10.37,2013-08-25 15:23:00,
2013-08-25 10:28:00,84.2,73.3,29.78,South,188,6.3,18.4,70,0.00,CLR,SKC,0.00,WeatherDisplay:10.37,2013-08-25 15:28:00,
2013-08-25 10:33:00,84.1,73.7,29.78,SSW,198,4.9,11.5,71,0.00,CLR,SKC,0.00,WeatherDisplay:10.37,2013-08-25 15:33:00,
2013-08-25 10:38:00,84.2,73.3,29.78,SSW,199,5.5,11.5,70,0.00,CLR,SKC,0.00,WeatherDisplay:10.37,2013-08-25 15:38:00,
2013-08-25 10:43:00,84.4,73.5,29.78,South,182,8.2,16.0,70,0.00,CLR,SKC,0.00,WeatherDisplay:10.37,2013-08-25 15:43:00,
2013-08-25 10:48:00,84.5,74.1,29.78,SW,227,4.1,15.0,71,0.00,CLR,SKC,0.00,WeatherDisplay:10.37,2013-08-25 15:48:00,
2013-08-25 10:53:00,84.9,74.4,29.78,South,191,3.7,8.1,71,0.00,CLR,SKC,0.00,WeatherDisplay:10.37,2013-08-25 15:53:00,
2013-08-25 10:58:00,85.1,73.8,29.78,South,175,8.0,14.0,69,0.00,CLR,SKC,0.00,WeatherDisplay:10.37,2013-08-25 15:58:00,
2013-08-25 11:03:00,85.0,74.1,29.78,South,188,3.6,11.5,70,0.00,CLR,SKC,0.00,WeatherDisplay:10.37,2013-08-25 16:03:00,
2013-08-25 11:08:00,85.2,74.3,29.78,SW,224,4.9,11.5,70,0.00,CLR,SKC,0.00,WeatherDisplay:10.37,2013-08-25 16:08:00,
2013-08-25 11:13:00,85.5,74.6,29.78,SSW,209,4.7,9.2,70,0.00,CLR,SKC,0.00,WeatherDisplay:10.37,2013-08-25 16:13:00,
2013-08-25 11:18:00,85.8,74.4,29.77,SSW,206,5.2,11.5,69,0.00,CLR,SKC,0.00,WeatherDisplay:10.37,2013-08-25 16:18:00,
2013-08-25 11:23:00,86.0,75.1,29.77,SW,225,6.4,12.7,70,0.00,CLR,SKC,0.00,WeatherDisplay:10.37,2013-08-25 16:23:00,
2013-08-25 11:28:00,86.1,74.7,29.77,SSW,200,5.7,12.7,69,0.00,CLR,SKC,0.00,WeatherDisplay:10.37,2013-08-25 16:28:00,
2013-08-25 11:33:00,86.4,75.0,29.77,SW,228,5.8,12.7,69,0.00,CLR,SKC,0.00,WeatherDisplay:10.37,2013-08-25 16:33:00,
2013-08-25 11:38:00,86.7,75.3,29.77,SSW,211,4.0,16.1,69,0.00,CLR,SKC,0.00,WeatherDisplay:10.37,2013-08-25 16:38:00,
2013-08-25 11:43:00,86.9,75.1,29.77,SW,217,9.4,14.0,68,0.00,CLR,SKC,0.00,WeatherDisplay:10.37,2013-08-25 16:43:00,
2013-08-25 11:48:00,86.8,74.5,29.77,South,175,7.7,12.0,67,0.00,CLR,SKC,0.00,WeatherDisplay:10.37,2013-08-25 16:48:00,
2013-08-25 11:53:00,86.8,75.0,29.77,South,180,6.6,13.8,68,0.00,CLR,SKC,0.00,WeatherDisplay:10.37,2013-08-25 16:53:00,
2013-08-25 11:58:00,87.2,76.2,29.77,SSW,213,4.7,10.0,70,0.00,CLR,SKC,0.00,WeatherDisplay:10.37,2013-08-25 16:58:00,
2013-08-25 12:03:00,87.7,75.8,29.77,SW,234,7.1,11.0,68,0.00,CLR,SKC,0.00,WeatherDisplay:10.37,2013-08-25 17:03:00,
2013-08-25 12:08:00,87.9,76.0,29.76,SW,215,3.8,13.8,68,0.00,CLR,SKC,0.00,WeatherDisplay:10.37,2013-08-25 17:08:00,
2013-08-25 12:13:00,87.9,75.6,29.76,South,190,7.5,16.1,67,0.00,CLR,SKC,0.00,WeatherDisplay:10.37,2013-08-25 17:13:00,
2013-08-25 12:18:00,87.6,75.3,29.77,South,182,8.7,13.0,67,0.00,CLR,SKC,0.00,WeatherDisplay:10.37,2013-08-25 17:18:00,
2013-08-25 12:23:00,87.5,75.2,29.76,SW,217,6.2,13.8,67,0.00,CLR,SKC,0.00,WeatherDisplay:10.37,2013-08-25 17:23:00,
2013-08-25 12:28:00,87.6,75.7,29.76,South,184,6.9,18.4,68,0.00,CLR,SKC,0.00,WeatherDisplay:10.37,2013-08-25 17:28:00,
2013-08-25 12:33:00,87.7,76.3,29.76,SSW,213,6.4,15.0,69,0.00,CLR,SKC,0.00,WeatherDisplay:10.37,2013-08-25 17:33:00,
2013-08-25 12:38:00,87.8,75.0,29.76,South,190,7.6,13.0,66,0.00,CLR,SKC,0.00,WeatherDisplay:10.37,2013-08-25 17:38:00,
2013-08-25 12:43:00,87.9,75.1,29.76,South,180,5.0,13.8,66,0.00,CLR,SKC,0.00,WeatherDisplay:10.37,2013-08-25 17:43:00,
2013-08-25 12:48:00,88.1,75.3,29.76,South,184,5.7,12.0,66,0.00,CLR,SKC,0.00,WeatherDisplay:10.37,2013-08-25 17:48:00,
2013-08-25 12:53:00,88.4,75.6,29.76,SSW,200,4.9,17.3,66,0.00,CLR,SKC,0.00,WeatherDisplay:10.37,2013-08-25 17:53:00,
2013-08-25 12:58:00,88.5,75.7,29.75,South,182,8.9,14.0,66,0.00,CLR,SKC,0.00,WeatherDisplay:10.37,2013-08-25 17:58:00,
2013-08-25 13:03:00,88.6,75.8,29.75,SSW,203,7.8,18.4,66,0.00,CLR,SKC,0.00,WeatherDisplay:10.37,2013-08-25 18:03:00,
2013-08-25 13:08:00,88.7,76.8,29.75,NW,317,4.2,12.7,68,0.00,CLR,SKC,0.00,WeatherDisplay:10.37,2013-08-25 18:08:00,
2013-08-25 13:13:00,88.8,76.4,29.75,South,188,5.7,9.2,67,0.00,CLR,SKC,0.00,WeatherDisplay:10.37,2013-08-25 18:13:00,
2013-08-25 13:18:00,89.0,76.2,29.75,SSW,205,4.7,11.5,66,0.00,CLR,SKC,0.00,WeatherDisplay:10.37,2013-08-25 18:18:00,
2013-08-25 13:23:00,89.3,76.4,29.75,SSW,198,5.2,10.4,66,0.00,CLR,SKC,0.00,WeatherDisplay:10.37,2013-08-25 18:23:00,
2013-08-25 13:28:00,89.5,76.6,29.75,SSW,209,3.9,9.0,66,0.00,CLR,SKC,0.00,WeatherDisplay:10.37,2013-08-25 18:28:00,
2013-08-25 13:33:00,89.7,76.8,29.74,SW,227,5.1,11.5,66,0.00,CLR,SKC,0.00,WeatherDisplay:10.37,2013-08-25 18:33:00,
2013-08-25 13:38:00,89.5,75.2,29.74,SW,226,8.1,13.0,63,0.00,CLR,SKC,0.00,WeatherDisplay:10.37,2013-08-25 18:38:00,
2013-08-25 13:43:00,89.3,75.5,29.74,South,175,5.9,16.1,64,0.00,CLR,SKC,0.00,WeatherDisplay:10.37,2013-08-25 18:43:00,
2013-08-25 13:48:00,89.3,75.5,29.74,SSW,198,5.3,10.4,64,0.00,CLR,SKC,0.00,WeatherDisplay:10.37,2013-08-25 18:48:00,
2013-08-25 13:53:00,89.5,76.6,29.74,SSW,200,5.6,18.4,66,0.00,CLR,SKC,0.00,WeatherDisplay:10.37,2013-08-25 18:53:00,
2013-08-25 13:58:00,89.4,76.1,29.74,South,175,5.9,13.8,65,0.00,CLR,SKC,0.00,WeatherDisplay:10.37,2013-08-25 18:58:00,
2013-08-25 14:03:00,89.4,75.6,29.74,SW,233,5.0,16.1,64,0.00,CLR,SKC,0.00,WeatherDisplay:10.37,2013-08-25 19:03:00,
2013-08-25 14:08:00,89.6,77.2,29.74,SSE,165,8.9,15.0,67,0.00,CLR,SKC,0.00,WeatherDisplay:10.37,2013-08-25 19:08:00,
2013-08-25 14:13:00,89.6,76.3,29.73,South,185,6.6,11.5,65,0.00,CLR,SKC,0.00,WeatherDisplay:10.37,2013-08-25 19:13:00,
2013-08-25 14:18:00,89.5,76.6,29.74,South,184,9.6,13.0,66,0.00,CLR,SKC,0.00,WeatherDisplay:10.37,2013-08-25 19:18:00,
2013-08-25 14:23:00,89.3,76.0,29.74,SSW,204,5.1,16.1,65,0.00,CLR,SKC,0.00,WeatherDisplay:10.37,2013-08-25 19:23:00,
2013-08-25 14:28:00,89.3,76.4,29.74,SW,216,5.9,12.7,66,0.00,CLR,SKC,0.00,WeatherDisplay:10.37,2013-08-25 19:28:00,
2013-08-25 14:33:00,89.1,76.3,29.74,South,187,12.5,16.1,66,0.00,CLR,SKC,0.00,WeatherDisplay:10.37,2013-08-25 19:33:00,
2013-08-25 14:38:00,88.8,76.4,29.73,South,184,8.4,18.4,67,0.00,CLR,SKC,0.00,WeatherDisplay:10.37,2013-08-25 19:38:00,
2013-08-25 14:43:00,88.9,76.5,29.73,South,185,9.9,19.6,67,0.00,CLR,SKC,0.00,WeatherDisplay:10.37,2013-08-25 19:43:00,
2013-08-25 14:48:00,88.7,76.3,29.73,SW,223,8.2,19.6,67,0.00,CLR,SKC,0.00,WeatherDisplay:10.37,2013-08-25 19:48:00,
2013-08-25 14:53:00,88.8,77.3,29.73,SSW,211,9.4,17.3,69,0.00,CLR,SKC,0.00,WeatherDisplay:10.37,2013-08-25 19:53:00,
2013-08-25 14:58:00,88.9,76.1,29.73,South,181,12.0,17.0,66,0.00,CLR,SKC,0.00,WeatherDisplay:10.37,2013-08-25 19:58:00,
2013-08-25 15:03:00,88.9,76.5,29.73,West,267,7.9,12.7,67,0.00,CLR,SKC,0.00,WeatherDisplay:10.37,2013-08-25 20:03:00,
2013-08-25 15:08:00,89.2,76.8,29.73,South,179,7.9,13.8,67,0.00,CLR,SKC,0.00,WeatherDisplay:10.37,2013-08-25 20:08:00,
2013-08-25 15:13:00,88.9,76.5,29.73,SSW,195,10.8,18.4,67,0.00,CLR,SKC,0.00,WeatherDisplay:10.37,2013-08-25 20:13:00,
2013-08-25 15:18:00,88.6,76.2,29.72,SSW,196,7.1,17.3,67,0.00,CLR,SKC,0.00,WeatherDisplay:10.37,2013-08-25 20:18:00,
2013-08-25 15:23:00,88.7,76.8,29.72,South,173,6.9,18.4,68,0.00,CLR,SKC,0.00,WeatherDisplay:10.37,2013-08-25 20:23:00,
2013-08-25 15:28:00,88.9,77.4,29.72,South,179,7.1,13.0,69,0.00,CLR,SKC,0.00,WeatherDisplay:10.37,2013-08-25 20:28:00,
2013-08-25 15:33:00,89.1,76.7,29.72,SSW,210,10.1,17.3,67,0.00,CLR,SKC,0.00,WeatherDisplay:10.37,2013-08-25 20:33:00,
2013-08-25 15:38:00,89.1,77.2,29.72,South,184,7.6,13.8,68,0.00,CLR,SKC,0.00,WeatherDisplay:10.37,2013-08-25 20:38:00,
2013-08-25 15:43:00,89.2,76.4,29.72,South,182,7.7,13.8,66,0.00,SCT,SKC,0.00,WeatherDisplay:10.37,2013-08-25 20:43:00,
2013-08-25 15:48:00,89.2,76.4,29.72,SSW,193,10.6,18.4,66,0.00,SCT,SKC,0.00,WeatherDisplay:10.37,2013-08-25 20:48:00,
2013-08-25 15:53:00,89.0,76.2,29.72,South,188,10.4,19.6,66,0.00,SCT,SKC,0.00,WeatherDisplay:10.37,2013-08-25 20:53:00,
2013-08-25 15:58:00,89.0,76.2,29.72,South,178,10.5,15.0,66,0.00,SCT,SKC,0.00,WeatherDisplay:10.37,2013-08-25 20:58:00,
2013-08-25 16:03:00,89.0,76.6,29.71,South,178,6.2,13.8,67,0.00,CLR,SKC,0.00,WeatherDisplay:10.37,2013-08-25 21:03:00,
2013-08-25 16:08:00,89.0,76.2,29.72,South,179,13.7,19.6,66,0.00,CLR,SKC,0.00,WeatherDisplay:10.37,2013-08-25 21:08:00,
2013-08-25 16:13:00,89.0,76.2,29.71,WSW,242,10.2,15.0,66,0.00,CLR,SKC,0.00,WeatherDisplay:10.37,2013-08-25 21:13:00,
2013-08-25 16:21:00,89.1,76.3,29.71,South,191,2.5,10.0,66,0.00,CLR,SKC,0.00,WeatherDisplay:10.37,2013-08-25 21:21:00,
2013-08-25 16:26:00,89.1,76.3,29.71,South,184,11.2,14.0,66,0.00,CLR,SKC,0.00,WeatherDisplay:10.37,2013-08-25 21:26:00,
2013-08-25 16:35:00,88.9,76.5,29.71,SSW,211,7.6,17.0,67,0.00,CLR,SKC,0.00,WeatherDisplay:10.37,2013-08-25 21:35:00,
2013-08-25 16:40:00,88.7,75.9,29.71,South,182,10.3,18.0,66,0.00,CLR,SKC,0.00,WeatherDisplay:10.37,2013-08-25 21:40:00,
2013-08-25 16:45:00,88.4,76.0,29.71,South,179,12.5,17.0,67,0.00,CLR,SKC,0.00,WeatherDisplay:10.37,2013-08-25 21:45:00,
2013-08-25 16:50:00,88.3,75.9,29.71,South,169,10.3,17.3,67,0.00,CLR,SKC,0.00,WeatherDisplay:10.37,2013-08-25 21:50:00,
2013-08-25 16:55:00,88.2,75.4,29.71,SSW,207,13.3,20.7,66,0.00,CLR,SKC,0.00,WeatherDisplay:10.37,2013-08-25 21:55:00,
2013-08-25 17:00:00,88.1,76.2,29.71,South,188,11.9,16.1,68,0.00,CLR,SKC,0.00,WeatherDisplay:10.37,2013-08-25 22:00:00,
2013-08-25 17:05:00,88.0,76.5,29.71,South,190,8.2,12.7,69,0.00,CLR,SKC,0.00,WeatherDisplay:10.37,2013-08-25 22:05:00,
2013-08-25 17:10:00,88.0,76.1,29.71,South,178,8.9,13.8,68,0.00,CLR,SKC,0.00,WeatherDisplay:10.37,2013-08-25 22:10:00,
2013-08-25 17:15:00,87.9,75.6,29.71,SSW,199,10.0,15.0,67,0.00,CLR,SKC,0.00,WeatherDisplay:10.37,2013-08-25 22:15:00,
2013-08-25 17:20:00,87.8,75.9,29.71,SSW,209,9.1,16.1,68,0.00,CLR,SKC,0.00,WeatherDisplay:10.37,2013-08-25 22:20:00,
2013-08-25 17:25:00,87.7,75.8,29.71,South,186,9.6,14.0,68,0.00,CLR,SKC,0.00,WeatherDisplay:10.37,2013-08-25 22:25:00,
2013-08-25 17:30:00,87.7,75.8,29.71,South,182,8.1,16.1,68,0.00,CLR,SKC,0.00,WeatherDisplay:10.37,2013-08-25 22:30:00,
2013-08-25 17:35:00,87.7,75.8,29.71,South,178,9.3,17.3,68,0.00,CLR,SKC,0.00,WeatherDisplay:10.37,2013-08-25 22:35:00,
2013-08-25 17:40:00,87.6,75.7,29.71,South,180,7.6,13.0,68,0.00,CLR,SKC,0.00,WeatherDisplay:10.37,2013-08-25 22:40:00,
2013-08-25 17:45:00,87.5,75.6,29.71,South,171,9.6,18.4,68,0.00,CLR,SKC,0.00,WeatherDisplay:10.37,2013-08-25 22:45:00,
2013-08-25 17:50:00,87.5,75.6,29.71,SSW,205,8.6,12.7,68,0.00,CLR,SKC,0.00,WeatherDisplay:10.37,2013-08-25 22:50:00,
2013-08-25 17:55:00,87.4,76.0,29.71,South,190,8.3,13.0,69,0.00,CLR,SKC,0.00,WeatherDisplay:10.37,2013-08-25 22:55:00,
2013-08-25 18:00:00,87.2,75.3,29.71,South,180,9.9,16.1,68,0.00,CLR,SKC,0.00,WeatherDisplay:10.37,2013-08-25 23:00:00,
2013-08-25 18:05:00,87.1,75.7,29.71,South,178,10.2,15.0,69,0.00,CLR,SKC,0.00,WeatherDisplay:10.37,2013-08-25 23:05:00,
2013-08-25 18:10:00,86.9,75.5,29.71,South,188,8.5,14.0,69,0.00,CLR,SKC,0.00,WeatherDisplay:10.37,2013-08-25 23:10:00,
2013-08-25 18:15:00,86.8,75.4,29.71,SW,227,9.5,16.1,69,0.00,CLR,SKC,0.00,WeatherDisplay:10.37,2013-08-25 23:15:00,
2013-08-25 18:20:00,86.7,75.3,29.71,South,184,7.8,13.8,69,0.00,CLR,SKC,0.00,WeatherDisplay:10.37,2013-08-25 23:20:00,
2013-08-25 18:25:00,86.5,75.1,29.71,South,190,10.4,16.1,69,0.00,CLR,SKC,0.00,WeatherDisplay:10.37,2013-08-25 23:25:00,
2013-08-25 18:30:00,86.5,75.1,29.71,South,175,8.5,15.0,69,0.00,CLR,SKC,0.00,WeatherDisplay:10.37,2013-08-25 23:30:00,
2013-08-25 18:35:00,86.4,75.0,29.71,South,182,9.1,15.0,69,0.00,CLR,SKC,0.00,WeatherDisplay:10.37,2013-08-25 23:35:00,
2013-08-25 18:40:00,86.3,75.4,29.71,South,175,7.6,13.0,70,0.00,CLR,SKC,0.00,WeatherDisplay:10.37,2013-08-25 23:40:00,
2013-08-25 18:45:00,86.1,75.2,29.71,SSW,197,7.7,12.0,70,0.00,CLR,SKC,0.00,WeatherDisplay:10.37,2013-08-25 23:45:00,
2013-08-25 18:50:00,86.0,75.1,29.71,South,170,7.9,11.5,70,0.00,CLR,SKC,0.00,WeatherDisplay:10.37,2013-08-25 23:50:00,
2013-08-25 18:55:00,85.8,74.9,29.71,South,178,8.1,13.0,70,0.00,CLR,SKC,0.00,WeatherDisplay:10.37,2013-08-25 23:55:00,
2013-08-25 19:00:00,85.6,75.1,29.71,South,179,8.1,11.5,71,0.00,CLR,SKC,0.00,WeatherDisplay:10.37,2013-08-26 00:00:00,
2013-08-25 19:05:00,85.5,75.0,29.71,South,177,7.8,12.7,71,0.00,CLR,SKC,0.00,WeatherDisplay:10.37,2013-08-26 00:05:00,
2013-08-25 19:10:00,85.3,74.8,29.71,South,172,8.0,12.0,71,0.00,CLR,SKC,0.00,WeatherDisplay:10.37,2013-08-26 00:10:00,
2013-08-25 19:15:00,85.2,74.7,29.71,South,176,7.7,12.0,71,0.00,CLR,SKC,0.00,WeatherDisplay:10.37,2013-08-26 00:15:00,
2013-08-25 19:20:00,85.0,74.5,29.71,South,178,8.0,12.0,71,0.00,CLR,SKC,0.00,WeatherDisplay:10.37,2013-08-26 00:20:00,
2013-08-25 19:25:00,84.8,74.3,29.71,South,178,8.0,12.7,71,0.00,CLR,SKC,0.00,WeatherDisplay:10.37,2013-08-26 00:25:00,
2013-08-25 19:30:00,84.6,74.6,29.71,South,180,8.4,15.0,72,0.00,CLR,SKC,0.00,WeatherDisplay:10.37,2013-08-26 00:30:00,
2013-08-25 19:35:00,84.4,74.4,29.71,South,184,8.2,11.0,72,0.00,CLR,SKC,0.00,WeatherDisplay:10.37,2013-08-26 00:35:00,
2013-08-25 19:40:00,84.2,74.2,29.71,South,186,5.5,9.2,72,0.00,CLR,SKC,0.00,WeatherDisplay:10.37,2013-08-26 00:40:00,
2013-08-25 19:45:00,83.9,73.9,29.71,South,184,7.6,11.5,72,0.00,CLR,SKC,0.00,WeatherDisplay:10.37,2013-08-26 00:45:00,
2013-08-25 19:50:00,83.7,74.1,29.71,South,177,6.5,11.5,73,0.00,CLR,SKC,0.00,WeatherDisplay:10.37,2013-08-26 00:50:00,
2013-08-25 19:55:00,83.4,73.8,29.71,SSW,198,5.8,8.1,73,0.00,CLR,SKC,0.00,WeatherDisplay:10.37,2013-08-26 00:55:00,
2013-08-25 20:00:00,83.1,73.5,29.71,South,188,4.9,8.1,73,0.00,CLR,SKC,0.00,WeatherDisplay:10.37,2013-08-26 01:00:00,
2013-08-25 20:05:00,82.8,73.7,29.71,South,184,5.3,8.1,74,0.00,CLR,SKC,0.00,WeatherDisplay:10.37,2013-08-26 01:05:00,
2013-08-25 20:10:00,82.6,73.5,29.71,SSW,192,4.9,10.4,74,0.00,CLR,SKC,0.00,WeatherDisplay:10.37,2013-08-26 01:10:00,
2013-08-25 20:15:00,82.4,73.3,29.71,South,173,6.9,9.2,74,0.00,CLR,SKC,0.00,WeatherDisplay:10.37,2013-08-26 01:15:00,
2013-08-25 20:20:00,82.3,73.2,29.71,South,182,5.1,8.1,74,0.00,CLR,SKC,0.00,WeatherDisplay:10.37,2013-08-26 01:20:00,
2013-08-25 20:25:00,82.2,73.1,29.72,South,184,6.3,9.2,74,0.00,CLR,SKC,0.00,WeatherDisplay:10.37,2013-08-26 01:25:00,
2013-08-25 20:30:00,82.1,73.0,29.72,SSW,195,5.8,10.4,74,0.00,CLR,SKC,0.00,WeatherDisplay:10.37,2013-08-26 01:30:00,
2013-08-25 20:35:00,82.0,72.9,29.72,South,184,6.5,8.1,74,0.00,CLR,SKC,0.00,WeatherDisplay:10.37,2013-08-26 01:35:00,
2013-08-25 20:40:00,81.9,72.8,29.72,SSW,192,6.5,9.2,74,0.00,CLR,SKC,0.00,WeatherDisplay:10.37,2013-08-26 01:40:00,
2013-08-25 20:45:00,81.8,72.7,29.72,South,191,5.8,11.5,74,0.00,CLR,SKC,0.00,WeatherDisplay:10.37,2013-08-26 01:45:00,
2013-08-25 20:50:00,81.7,72.6,29.73,South,190,5.8,9.2,74,0.00,CLR,SKC,0.00,WeatherDisplay:10.37,2013-08-26 01:50:00,
2013-08-25 20:55:00,81.5,72.4,29.73,South,187,7.5,11.5,74,0.00,CLR,SKC,0.00,WeatherDisplay:10.37,2013-08-26 01:55:00,
2013-08-25 21:00:00,81.3,72.2,29.73,South,180,8.0,11.5,74,0.00,CLR,SKC,0.00,WeatherDisplay:10.37,2013-08-26 02:00:00,
2013-08-25 21:05:00,81.2,72.1,29.73,South,185,5.9,9.2,74,0.00,CLR,SKC,0.00,WeatherDisplay:10.37,2013-08-26 02:05:00,
2013-08-25 21:10:00,81.1,72.0,29.73,SSW,203,7.3,11.5,74,0.00,CLR,SKC,0.00,WeatherDisplay:10.37,2013-08-26 02:10:00,
2013-08-25 21:15:00,80.9,71.8,29.73,South,180,5.8,9.0,74,0.00,CLR,SKC,0.00,WeatherDisplay:10.37,2013-08-26 02:15:00,
2013-08-25 21:20:00,80.8,71.7,29.73,South,184,7.3,11.5,74,0.00,CLR,SKC,0.00,WeatherDisplay:10.37,2013-08-26 02:20:00,
2013-08-25 21:25:00,80.7,71.6,29.73,South,185,6.1,10.4,74,0.00,CLR,SKC,0.00,WeatherDisplay:10.37,2013-08-26 02:25:00,
2013-08-25 21:30:00,80.5,71.4,29.74,South,186,5.6,10.4,74,0.00,CLR,SKC,0.00,WeatherDisplay:10.37,2013-08-26 02:30:00,
2013-08-25 21:35:00,80.4,71.3,29.74,South,180,6.7,9.2,74,0.00,CLR,SKC,0.00,WeatherDisplay:10.37,2013-08-26 02:35:00,
2013-08-25 21:40:00,80.2,71.2,29.74,SSW,213,4.9,10.4,74,0.00,CLR,SKC,0.00,WeatherDisplay:10.37,2013-08-26 02:40:00,
2013-08-25 21:45:00,80.1,71.1,29.74,SSW,192,5.8,11.5,74,0.00,CLR,SKC,0.00,WeatherDisplay:10.37,2013-08-26 02:45:00,
2013-08-25 21:50:00,79.9,70.9,29.74,SSW,192,3.6,8.1,74,0.00,CLR,SKC,0.00,WeatherDisplay:10.37,2013-08-26 02:50:00,
2013-08-25 21:55:00,79.7,70.7,29.74,South,182,4.3,9.2,74,0.00,CLR,SKC,0.00,WeatherDisplay:10.37,2013-08-26 02:55:00,
2013-08-25 22:00:00,79.6,70.6,29.74,South,191,4.5,6.9,74,0.00,CLR,SKC,0.00,WeatherDisplay:10.37,2013-08-26 03:00:00,
2013-08-25 22:05:00,79.4,70.4,29.74,South,183,4.8,9.2,74,0.00,CLR,SKC,0.00,WeatherDisplay:10.37,2013-08-26 03:05:00,
2013-08-25 22:10:00,79.3,70.3,29.74,SSW,196,4.8,9.2,74,0.00,CLR,SKC,0.00,WeatherDisplay:10.37,2013-08-26 03:10:00,
2013-08-25 22:15:00,79.3,70.3,29.74,South,188,4.2,11.5,74,0.00,CLR,SKC,0.00,WeatherDisplay:10.37,2013-08-26 03:15:00,
2013-08-25 22:20:00,79.2,70.2,29.74,South,189,5.8,9.2,74,0.00,CLR,SKC,0.00,WeatherDisplay:10.37,2013-08-26 03:20:00,
2013-08-25 22:25:00,79.2,70.2,29.74,South,182,5.5,10.4,74,0.00,CLR,SKC,0.00,WeatherDisplay:10.37,2013-08-26 03:25:00,
2013-08-25 22:30:00,79.2,70.2,29.74,SSW,196,5.6,9.0,74,0.00,CLR,SKC,0.00,WeatherDisplay:10.37,2013-08-26 03:30:00,
2013-08-25 22:35:00,79.3,70.3,29.75,South,187,2.9,8.1,74,0.00,CLR,SKC,0.00,WeatherDisplay:10.37,2013-08-26 03:35:00,
2013-08-25 22:40:00,79.4,70.4,29.75,SSW,192,3.6,7.0,74,0.00,CLR,SKC,0.00,WeatherDisplay:10.37,2013-08-26 03:40:00,
2013-08-25 22:45:00,79.4,70.4,29.75,SW,223,3.7,9.2,74,0.00,CLR,SKC,0.00,WeatherDisplay:10.37,2013-08-26 03:45:00,
2013-08-25 22:50:00,79.5,70.5,29.75,SW,225,4.4,8.0,74,0.00,CLR,SKC,0.00,WeatherDisplay:10.37,2013-08-26 03:50:00,
2013-08-25 22:55:00,79.6,70.6,29.75,South,188,3.9,7.0,74,0.00,CLR,SKC,0.00,WeatherDisplay:10.37,2013-08-26 03:55:00,
2013-08-25 23:00:00,79.7,70.7,29.75,SSW,192,5.0,10.4,74,0.00,CLR,SKC,0.00,WeatherDisplay:10.37,2013-08-26 04:00:00,
2013-08-25 23:01:00,79.7,70.7,29.75,South,189,3.7,10.4,74,0.00,CLR,SKC,0.00,WeatherDisplay:10.37,2013-08-26 04:01:00,
2013-08-25 23:02:00,79.7,70.7,29.75,South,189,4.0,6.9,74,0.00,CLR,SKC,0.00,WeatherDisplay:10.37,2013-08-26 04:02:00,
2013-08-25 23:04:00,79.7,70.7,29.75,South,186,6.0,10.4,74,0.00,CLR,SKC,0.00,WeatherDisplay:10.37,2013-08-26 04:04:00,
2013-08-25 23:06:00,79.7,70.7,29.74,SW,221,4.6,8.1,74,0.00,CLR,SKC,0.00,WeatherDisplay:10.37,2013-08-26 04:06:00,
2013-08-25 23:11:00,79.8,70.8,29.75,SSW,198,3.5,11.5,74,0.00,CLR,SKC,0.00,WeatherDisplay:10.37,2013-08-26 04:11:00,
2013-08-25 23:16:00,79.8,70.8,29.74,SSW,192,4.1,9.2,74,0.00,CLR,SKC,0.00,WeatherDisplay:10.37,2013-08-26 04:16:00,
2013-08-25 23:21:00,79.9,70.9,29.74,SSW,206,4.1,9.2,74,0.00,CLR,SKC,0.00,WeatherDisplay:10.37,2013-08-26 04:21:00,
2013-08-25 23:26:00,80.0,71.0,29.74,SW,221,3.7,6.0,74,0.00,CLR,SKC,0.00,WeatherDisplay:10.37,2013-08-26 04:26:00,
2013-08-25 23:31:00,79.8,70.8,29.74,SW,221,5.0,12.0,74,0.00,CLR,SKC,0.00,WeatherDisplay:10.37,2013-08-26 04:31:00,
2013-08-25 23:36:00,79.8,70.8,29.74,SW,221,3.2,6.0,74,0.00,CLR,SKC,0.00,WeatherDisplay:10.37,2013-08-26 04:36:00,
2013-08-25 23:41:00,79.8,70.8,29.74,SW,214,4.3,10.4,74,0.00,CLR,SKC,0.00,WeatherDisplay:10.37,2013-08-26 04:41:00,
2013-08-25 23:46:00,79.8,70.8,29.74,SW,221,3.4,8.1,74,0.00,CLR,SKC,0.00,WeatherDisplay:10.37,2013-08-26 04:46:00,
2013-08-25 23:51:00,79.8,70.8,29.74,SW,223,4.3,11.5,74,0.00,CLR,SKC,0.00,WeatherDisplay:10.37,2013-08-26 04:51:00,
2013-08-25 23:56:00,79.9,70.9,29.74,WSW,246,4.9,12.7,74,0.00,CLR,SKC,0.00,WeatherDisplay:10.37,2013-08-26 04:56:00,